sensor_id;sensor_type;location;lat;lon;timestamp;temperature;humidity
15656;DHT22;7928;43.614;1.456;2023-05-10T00:01:36;13.70;99.90
15656;DHT22;7928;43.614;1.456;2023-05-10T00:04:03;13.60;99.90
15656;DHT22;7928;43.614;1.456;2023-05-10T00:06:30;13.60;99.90
15656;DHT22;7928;43.614;1.456;2023-05-10T00:08:58;13.60;99.90
15656;DHT22;7928;43.614;1.456;2023-05-10T00:11:25;13.50;99.90
15656;DHT22;7928;43.614;1.456;2023-05-10T00:13:52;13.50;99.90
15656;DHT22;7928;43.614;1.456;2023-05-10T00:16:19;13.50;99.90
15656;DHT22;7928;43.614;1.456;2023-05-10T00:18:46;13.50;99.90
15656;DHT22;7928;43.614;1.456;2023-05-10T00:21:13;13.40;99.90
15656;DHT22;7928;43.614;1.456;2023-05-10T00:23:41;13.40;99.90
15656;DHT22;7928;43.614;1.456;2023-05-10T00:26:09;13.40;99.90
15656;DHT22;7928;43.614;1.456;2023-05-10T00:28:36;13.40;99.90
15656;DHT22;7928;43.614;1.456;2023-05-10T00:31:03;13.40;99.90
15656;DHT22;7928;43.614;1.456;2023-05-10T00:33:30;13.40;99.90
15656;DHT22;7928;43.614;1.456;2023-05-10T00:35:57;13.40;99.90
15656;DHT22;7928;43.614;1.456;2023-05-10T00:38:24;13.30;99.90
15656;DHT22;7928;43.614;1.456;2023-05-10T00:40:51;13.40;99.90
15656;DHT22;7928;43.614;1.456;2023-05-10T00:43:20;13.30;99.90
15656;DHT22;7928;43.614;1.456;2023-05-10T00:45:47;13.30;99.90
15656;DHT22;7928;43.614;1.456;2023-05-10T00:48:14;13.30;99.90
15656;DHT22;7928;43.614;1.456;2023-05-10T00:50:41;13.30;99.90
15656;DHT22;7928;43.614;1.456;2023-05-10T00:53:08;13.30;99.90
15656;DHT22;7928;43.614;1.456;2023-05-10T00:55:36;13.40;99.90
15656;DHT22;7928;43.614;1.456;2023-05-10T00:58:03;13.40;99.90
15656;DHT22;7928;43.614;1.456;2023-05-10T01:00:32;13.40;99.90
15656;DHT22;7928;43.614;1.456;2023-05-10T01:03:00;13.40;99.90
15656;DHT22;7928;43.614;1.456;2023-05-10T01:05:27;13.40;99.90
15656;DHT22;7928;43.614;1.456;2023-05-10T01:07:54;13.40;99.90
15656;DHT22;7928;43.614;1.456;2023-05-10T01:10:21;13.40;99.90
15656;DHT22;7928;43.614;1.456;2023-05-10T01:12:48;13.50;99.90
15656;DHT22;7928;43.614;1.456;2023-05-10T01:15:16;13.50;99.90
15656;DHT22;7928;43.614;1.456;2023-05-10T01:17:47;13.50;99.90
15656;DHT22;7928;43.614;1.456;2023-05-10T01:20:14;13.50;99.90
15656;DHT22;7928;43.614;1.456;2023-05-10T01:28:58;13.50;99.90
15656;DHT22;7928;43.614;1.456;2023-05-10T01:32:01;13.40;99.90
15656;DHT22;7928;43.614;1.456;2023-05-10T01:34:35;13.40;99.90
15656;DHT22;7928;43.614;1.456;2023-05-10T01:37:07;13.40;99.90
15656;DHT22;7928;43.614;1.456;2023-05-10T01:39:41;13.30;99.90
15656;DHT22;7928;43.614;1.456;2023-05-10T01:42:15;13.30;99.90
15656;DHT22;7928;43.614;1.456;2023-05-10T01:44:49;13.20;99.90
15656;DHT22;7928;43.614;1.456;2023-05-10T01:47:24;13.20;99.90
15656;DHT22;7928;43.614;1.456;2023-05-10T01:49:55;13.20;99.90
15656;DHT22;7928;43.614;1.456;2023-05-10T01:52:26;13.20;99.90
15656;DHT22;7928;43.614;1.456;2023-05-10T01:55:01;13.10;99.90
15656;DHT22;7928;43.614;1.456;2023-05-10T01:57:33;13.10;99.90
15656;DHT22;7928;43.614;1.456;2023-05-10T02:00:01;13.10;99.90
15656;DHT22;7928;43.614;1.456;2023-05-10T02:02:35;13.10;99.90
15656;DHT22;7928;43.614;1.456;2023-05-10T02:05:05;13.10;99.90
15656;DHT22;7928;43.614;1.456;2023-05-10T02:07:35;13.10;99.90
15656;DHT22;7928;43.614;1.456;2023-05-10T02:10:03;13.10;99.90
15656;DHT22;7928;43.614;1.456;2023-05-10T02:12:31;13.20;99.90
15656;DHT22;7928;43.614;1.456;2023-05-10T02:14:59;13.20;99.90
15656;DHT22;7928;43.614;1.456;2023-05-10T02:17:27;13.20;99.90
15656;DHT22;7928;43.614;1.456;2023-05-10T02:19:57;13.20;99.90
15656;DHT22;7928;43.614;1.456;2023-05-10T02:22:25;13.20;99.90
15656;DHT22;7928;43.614;1.456;2023-05-10T02:24:54;13.20;99.90
15656;DHT22;7928;43.614;1.456;2023-05-10T02:27:23;13.20;99.90
15656;DHT22;7928;43.614;1.456;2023-05-10T02:29:51;13.20;99.90
15656;DHT22;7928;43.614;1.456;2023-05-10T02:32:19;13.20;99.90
15656;DHT22;7928;43.614;1.456;2023-05-10T02:34:49;13.20;99.90
15656;DHT22;7928;43.614;1.456;2023-05-10T02:37:19;13.20;99.90
15656;DHT22;7928;43.614;1.456;2023-05-10T02:39:47;13.10;99.90
15656;DHT22;7928;43.614;1.456;2023-05-10T02:42:18;13.20;99.90
15656;DHT22;7928;43.614;1.456;2023-05-10T02:44:47;13.20;99.90
15656;DHT22;7928;43.614;1.456;2023-05-10T02:47:15;13.30;99.90
15656;DHT22;7928;43.614;1.456;2023-05-10T02:49:42;13.30;99.90
15656;DHT22;7928;43.614;1.456;2023-05-10T02:52:10;13.40;99.90
15656;DHT22;7928;43.614;1.456;2023-05-10T02:54:43;13.40;99.90
15656;DHT22;7928;43.614;1.456;2023-05-10T02:57:17;13.40;99.90
15656;DHT22;7928;43.614;1.456;2023-05-10T02:59:49;13.40;99.90
15656;DHT22;7928;43.614;1.456;2023-05-10T03:02:16;13.50;99.90
15656;DHT22;7928;43.614;1.456;2023-05-10T03:04:43;13.50;99.90
15656;DHT22;7928;43.614;1.456;2023-05-10T03:07:10;13.40;99.90
15656;DHT22;7928;43.614;1.456;2023-05-10T03:09:38;13.50;99.90
15656;DHT22;7928;43.614;1.456;2023-05-10T03:12:11;13.40;99.90
15656;DHT22;7928;43.614;1.456;2023-05-10T03:14:56;13.30;99.90
15656;DHT22;7928;43.614;1.456;2023-05-10T03:17:29;13.30;99.90
15656;DHT22;7928;43.614;1.456;2023-05-10T03:19:58;13.20;99.90
15656;DHT22;7928;43.614;1.456;2023-05-10T03:22:32;13.10;99.90
15656;DHT22;7928;43.614;1.456;2023-05-10T03:25:05;13.00;99.90
15656;DHT22;7928;43.614;1.456;2023-05-10T03:27:34;13.10;99.90
15656;DHT22;7928;43.614;1.456;2023-05-10T03:30:02;13.00;99.90
15656;DHT22;7928;43.614;1.456;2023-05-10T03:32:29;13.00;99.90
15656;DHT22;7928;43.614;1.456;2023-05-10T03:34:57;12.90;99.90
15656;DHT22;7928;43.614;1.456;2023-05-10T03:37:24;12.90;99.90
15656;DHT22;7928;43.614;1.456;2023-05-10T03:39:51;12.90;99.90
15656;DHT22;7928;43.614;1.456;2023-05-10T03:42:20;12.80;99.90
15656;DHT22;7928;43.614;1.456;2023-05-10T03:44:47;12.80;99.90
15656;DHT22;7928;43.614;1.456;2023-05-10T03:47:15;12.80;99.90
15656;DHT22;7928;43.614;1.456;2023-05-10T03:49:42;12.70;99.90
15656;DHT22;7928;43.614;1.456;2023-05-10T03:52:09;12.70;99.90
15656;DHT22;7928;43.614;1.456;2023-05-10T03:54:36;12.60;99.90
15656;DHT22;7928;43.614;1.456;2023-05-10T03:57:03;12.60;99.90
15656;DHT22;7928;43.614;1.456;2023-05-10T03:59:31;12.60;99.90
15656;DHT22;7928;43.614;1.456;2023-05-10T04:01:58;12.60;99.90
15656;DHT22;7928;43.614;1.456;2023-05-10T04:04:25;12.60;99.90
15656;DHT22;7928;43.614;1.456;2023-05-10T04:06:52;12.60;99.90
15656;DHT22;7928;43.614;1.456;2023-05-10T04:09:20;12.60;99.90
15656;DHT22;7928;43.614;1.456;2023-05-10T04:11:47;12.60;99.90
15656;DHT22;7928;43.614;1.456;2023-05-10T04:14:14;12.60;99.90
15656;DHT22;7928;43.614;1.456;2023-05-10T04:16:43;12.60;99.90
15656;DHT22;7928;43.614;1.456;2023-05-10T04:19:10;12.50;99.90
15656;DHT22;7928;43.614;1.456;2023-05-10T04:21:37;12.50;99.90
15656;DHT22;7928;43.614;1.456;2023-05-10T04:24:04;12.50;99.90
15656;DHT22;7928;43.614;1.456;2023-05-10T04:26:31;12.50;99.90
15656;DHT22;7928;43.614;1.456;2023-05-10T04:28:58;12.50;99.90
15656;DHT22;7928;43.614;1.456;2023-05-10T04:31:25;12.50;99.90
15656;DHT22;7928;43.614;1.456;2023-05-10T04:33:54;12.50;99.90
15656;DHT22;7928;43.614;1.456;2023-05-10T04:36:21;12.50;99.90
15656;DHT22;7928;43.614;1.456;2023-05-10T04:38:48;12.50;99.90
15656;DHT22;7928;43.614;1.456;2023-05-10T04:41:15;12.40;99.90
15656;DHT22;7928;43.614;1.456;2023-05-10T04:43:42;12.40;99.90
15656;DHT22;7928;43.614;1.456;2023-05-10T04:46:09;12.40;99.90
15656;DHT22;7928;43.614;1.456;2023-05-10T04:48:36;12.40;99.90
15656;DHT22;7928;43.614;1.456;2023-05-10T04:51:05;12.40;99.90
15656;DHT22;7928;43.614;1.456;2023-05-10T04:53:32;12.40;99.90
15656;DHT22;7928;43.614;1.456;2023-05-10T04:55:59;12.40;99.90
15656;DHT22;7928;43.614;1.456;2023-05-10T04:58:26;12.50;99.90
15656;DHT22;7928;43.614;1.456;2023-05-10T05:00:53;12.50;99.90
15656;DHT22;7928;43.614;1.456;2023-05-10T05:03:20;12.50;99.90
15656;DHT22;7928;43.614;1.456;2023-05-10T05:05:47;12.60;99.90
15656;DHT22;7928;43.614;1.456;2023-05-10T05:08:16;12.60;99.90
15656;DHT22;7928;43.614;1.456;2023-05-10T05:10:43;12.50;99.90
15656;DHT22;7928;43.614;1.456;2023-05-10T05:13:10;12.50;99.90
15656;DHT22;7928;43.614;1.456;2023-05-10T05:15:39;12.50;99.90
15656;DHT22;7928;43.614;1.456;2023-05-10T05:18:06;12.40;99.90
15656;DHT22;7928;43.614;1.456;2023-05-10T05:20:33;12.40;99.90
15656;DHT22;7928;43.614;1.456;2023-05-10T05:23:00;12.40;99.90
15656;DHT22;7928;43.614;1.456;2023-05-10T05:25:28;12.30;99.90
15656;DHT22;7928;43.614;1.456;2023-05-10T05:27:55;12.40;99.90
15656;DHT22;7928;43.614;1.456;2023-05-10T05:30:22;12.40;99.90
15656;DHT22;7928;43.614;1.456;2023-05-10T05:32:49;12.40;99.90
15656;DHT22;7928;43.614;1.456;2023-05-10T05:35:16;12.30;99.90
15656;DHT22;7928;43.614;1.456;2023-05-10T05:37:43;12.40;99.90
15656;DHT22;7928;43.614;1.456;2023-05-10T05:40:12;12.40;99.90
15656;DHT22;7928;43.614;1.456;2023-05-10T05:42:41;12.40;99.90
15656;DHT22;7928;43.614;1.456;2023-05-10T05:45:09;12.40;99.90
15656;DHT22;7928;43.614;1.456;2023-05-10T05:47:39;12.40;99.90
15656;DHT22;7928;43.614;1.456;2023-05-10T05:50:07;12.50;99.90
15656;DHT22;7928;43.614;1.456;2023-05-10T05:52:34;12.50;99.90
15656;DHT22;7928;43.614;1.456;2023-05-10T05:55:02;12.60;99.90
15656;DHT22;7928;43.614;1.456;2023-05-10T05:57:30;12.70;99.90
15656;DHT22;7928;43.614;1.456;2023-05-10T05:59:58;12.80;99.90
15656;DHT22;7928;43.614;1.456;2023-05-10T06:02:25;12.80;99.90
15656;DHT22;7928;43.614;1.456;2023-05-10T06:04:52;12.90;99.90
15656;DHT22;7928;43.614;1.456;2023-05-10T06:07:19;12.80;99.90
15656;DHT22;7928;43.614;1.456;2023-05-10T06:09:46;12.80;99.90
15656;DHT22;7928;43.614;1.456;2023-05-10T06:12:13;12.80;99.90
15656;DHT22;7928;43.614;1.456;2023-05-10T06:14:40;12.90;99.90
15656;DHT22;7928;43.614;1.456;2023-05-10T06:17:08;12.80;99.90
15656;DHT22;7928;43.614;1.456;2023-05-10T06:19:35;12.80;99.90
15656;DHT22;7928;43.614;1.456;2023-05-10T06:22:02;12.90;99.90
15656;DHT22;7928;43.614;1.456;2023-05-10T06:24:29;13.00;99.90
15656;DHT22;7928;43.614;1.456;2023-05-10T06:26:56;13.00;99.90
15656;DHT22;7928;43.614;1.456;2023-05-10T06:29:25;13.00;99.90
15656;DHT22;7928;43.614;1.456;2023-05-10T06:31:52;13.00;99.90
15656;DHT22;7928;43.614;1.456;2023-05-10T06:34:21;12.90;99.90
15656;DHT22;7928;43.614;1.456;2023-05-10T06:36:48;12.90;99.90
15656;DHT22;7928;43.614;1.456;2023-05-10T06:39:15;12.90;99.90
15656;DHT22;7928;43.614;1.456;2023-05-10T06:41:42;12.90;99.90
15656;DHT22;7928;43.614;1.456;2023-05-10T06:44:09;12.90;99.90
15656;DHT22;7928;43.614;1.456;2023-05-10T06:46:36;13.00;99.90
15656;DHT22;7928;43.614;1.456;2023-05-10T06:49:03;13.20;99.90
15656;DHT22;7928;43.614;1.456;2023-05-10T06:51:31;13.30;99.90
15656;DHT22;7928;43.614;1.456;2023-05-10T06:53:59;13.30;99.90
15656;DHT22;7928;43.614;1.456;2023-05-10T06:56:26;13.30;99.90
15656;DHT22;7928;43.614;1.456;2023-05-10T06:58:53;13.30;99.90
15656;DHT22;7928;43.614;1.456;2023-05-10T07:01:20;13.30;99.90
15656;DHT22;7928;43.614;1.456;2023-05-10T07:03:47;13.40;99.90
15656;DHT22;7928;43.614;1.456;2023-05-10T07:06:14;13.30;99.90
15656;DHT22;7928;43.614;1.456;2023-05-10T07:08:42;13.40;99.90
15656;DHT22;7928;43.614;1.456;2023-05-10T07:11:09;13.40;99.90
15656;DHT22;7928;43.614;1.456;2023-05-10T07:13:36;13.60;99.90
15656;DHT22;7928;43.614;1.456;2023-05-10T07:16:06;13.70;99.90
15656;DHT22;7928;43.614;1.456;2023-05-10T07:18:33;13.80;99.90
15656;DHT22;7928;43.614;1.456;2023-05-10T07:21:00;14.10;99.90
15656;DHT22;7928;43.614;1.456;2023-05-10T07:23:28;14.40;99.90
15656;DHT22;7928;43.614;1.456;2023-05-10T07:25:57;14.40;99.90
15656;DHT22;7928;43.614;1.456;2023-05-10T07:28:24;14.60;99.90
15656;DHT22;7928;43.614;1.456;2023-05-10T07:30:51;14.60;99.90
15656;DHT22;7928;43.614;1.456;2023-05-10T07:33:18;14.70;99.90
15656;DHT22;7928;43.614;1.456;2023-05-10T07:35:45;14.90;99.90
15656;DHT22;7928;43.614;1.456;2023-05-10T07:38:12;14.70;99.90
15656;DHT22;7928;43.614;1.456;2023-05-10T07:40:40;14.80;99.90
15656;DHT22;7928;43.614;1.456;2023-05-10T07:43:08;14.80;99.90
15656;DHT22;7928;43.614;1.456;2023-05-10T07:45:35;14.80;99.90
15656;DHT22;7928;43.614;1.456;2023-05-10T07:48:02;14.80;99.90
15656;DHT22;7928;43.614;1.456;2023-05-10T07:50:29;14.70;99.90
15656;DHT22;7928;43.614;1.456;2023-05-10T07:52:57;14.60;99.90
15656;DHT22;7928;43.614;1.456;2023-05-10T07:55:24;14.60;99.90
15656;DHT22;7928;43.614;1.456;2023-05-10T07:57:51;14.70;99.90
15656;DHT22;7928;43.614;1.456;2023-05-10T08:00:20;14.80;99.90
15656;DHT22;7928;43.614;1.456;2023-05-10T08:02:47;14.80;99.90
15656;DHT22;7928;43.614;1.456;2023-05-10T08:05:14;14.90;99.90
15656;DHT22;7928;43.614;1.456;2023-05-10T08:07:41;15.10;99.90
15656;DHT22;7928;43.614;1.456;2023-05-10T08:10:09;15.30;99.90
15656;DHT22;7928;43.614;1.456;2023-05-10T08:12:37;15.20;99.90
15656;DHT22;7928;43.614;1.456;2023-05-10T08:15:06;15.30;99.90
15656;DHT22;7928;43.614;1.456;2023-05-10T08:17:34;15.40;99.90
15656;DHT22;7928;43.614;1.456;2023-05-10T08:20:01;15.60;99.90
15656;DHT22;7928;43.614;1.456;2023-05-10T08:22:28;15.90;99.90
15656;DHT22;7928;43.614;1.456;2023-05-10T08:24:55;16.00;99.90
15656;DHT22;7928;43.614;1.456;2023-05-10T08:27:22;15.90;99.90
15656;DHT22;7928;43.614;1.456;2023-05-10T08:29:49;15.90;99.90
15656;DHT22;7928;43.614;1.456;2023-05-10T08:32:16;15.70;99.90
15656;DHT22;7928;43.614;1.456;2023-05-10T08:34:45;15.50;99.90
15656;DHT22;7928;43.614;1.456;2023-05-10T08:37:12;15.20;99.90
15656;DHT22;7928;43.614;1.456;2023-05-10T08:39:39;15.40;99.90
15656;DHT22;7928;43.614;1.456;2023-05-10T08:42:06;15.60;99.90
15656;DHT22;7928;43.614;1.456;2023-05-10T08:44:35;15.70;99.90
15656;DHT22;7928;43.614;1.456;2023-05-10T08:47:05;16.00;99.90
15656;DHT22;7928;43.614;1.456;2023-05-10T08:49:33;16.50;99.90
15656;DHT22;7928;43.614;1.456;2023-05-10T08:52:03;16.70;99.90
15656;DHT22;7928;43.614;1.456;2023-05-10T08:54:32;16.50;99.90
15656;DHT22;7928;43.614;1.456;2023-05-10T08:57:00;16.30;99.90
15656;DHT22;7928;43.614;1.456;2023-05-10T08:59:27;16.20;99.90
15656;DHT22;7928;43.614;1.456;2023-05-10T09:01:57;16.40;99.90
15656;DHT22;7928;43.614;1.456;2023-05-10T09:04:25;16.60;99.90
15656;DHT22;7928;43.614;1.456;2023-05-10T09:06:52;16.50;99.90
15656;DHT22;7928;43.614;1.456;2023-05-10T09:09:21;16.70;99.90
15656;DHT22;7928;43.614;1.456;2023-05-10T09:11:48;17.00;99.90
15656;DHT22;7928;43.614;1.456;2023-05-10T09:14:16;17.30;99.90
15656;DHT22;7928;43.614;1.456;2023-05-10T09:16:43;17.40;99.90
15656;DHT22;7928;43.614;1.456;2023-05-10T09:19:10;17.30;99.90
15656;DHT22;7928;43.614;1.456;2023-05-10T09:21:37;17.10;99.90
15656;DHT22;7928;43.614;1.456;2023-05-10T09:24:05;17.10;99.90
15656;DHT22;7928;43.614;1.456;2023-05-10T09:26:34;17.10;99.90
15656;DHT22;7928;43.614;1.456;2023-05-10T09:29:02;17.30;99.90
15656;DHT22;7928;43.614;1.456;2023-05-10T09:31:44;17.50;99.90
15656;DHT22;7928;43.614;1.456;2023-05-10T09:34:16;17.60;99.90
15656;DHT22;7928;43.614;1.456;2023-05-10T09:36:51;17.70;99.90
15656;DHT22;7928;43.614;1.456;2023-05-10T09:39:18;17.60;99.90
15656;DHT22;7928;43.614;1.456;2023-05-10T09:41:47;17.50;1.00
15656;DHT22;7928;43.614;1.456;2023-05-10T09:44:17;17.10;1.00
15656;DHT22;7928;43.614;1.456;2023-05-10T09:46:49;17.10;1.00
15656;DHT22;7928;43.614;1.456;2023-05-10T09:49:18;17.30;1.00
15656;DHT22;7928;43.614;1.456;2023-05-10T09:51:45;17.50;1.00
15656;DHT22;7928;43.614;1.456;2023-05-10T09:54:14;17.50;99.90
15656;DHT22;7928;43.614;1.456;2023-05-10T09:56:41;17.60;1.00
15656;DHT22;7928;43.614;1.456;2023-05-10T09:59:11;17.90;99.90
15656;DHT22;7928;43.614;1.456;2023-05-10T10:01:39;18.50;1.00
15656;DHT22;7928;43.614;1.456;2023-05-10T10:04:08;18.80;99.90
15656;DHT22;7928;43.614;1.456;2023-05-10T10:06:36;18.90;99.90
15656;DHT22;7928;43.614;1.456;2023-05-10T10:09:04;18.60;99.90
15656;DHT22;7928;43.614;1.456;2023-05-10T10:11:33;18.00;1.00
15656;DHT22;7928;43.614;1.456;2023-05-10T10:14:00;17.90;1.00
15656;DHT22;7928;43.614;1.456;2023-05-10T10:16:30;18.10;1.00
15656;DHT22;7928;43.614;1.456;2023-05-10T10:18:57;18.60;1.00
15656;DHT22;7928;43.614;1.456;2023-05-10T10:21:24;18.80;99.90
15656;DHT22;7928;43.614;1.456;2023-05-10T10:23:51;18.60;99.90
15656;DHT22;7928;43.614;1.456;2023-05-10T10:26:19;18.50;99.90
15656;DHT22;7928;43.614;1.456;2023-05-10T10:28:54;18.40;99.90
15656;DHT22;7928;43.614;1.456;2023-05-10T10:31:32;18.50;99.90
15656;DHT22;7928;43.614;1.456;2023-05-10T10:34:05;18.20;99.90
15656;DHT22;7928;43.614;1.456;2023-05-10T10:36:33;18.30;99.90
15656;DHT22;7928;43.614;1.456;2023-05-10T10:39:09;18.40;99.90
15656;DHT22;7928;43.614;1.456;2023-05-10T10:41:38;18.50;99.90
15656;DHT22;7928;43.614;1.456;2023-05-10T10:44:26;18.50;99.90
15656;DHT22;7928;43.614;1.456;2023-05-10T10:47:00;18.70;99.90
15656;DHT22;7928;43.614;1.456;2023-05-10T10:49:30;19.10;99.90
15656;DHT22;7928;43.614;1.456;2023-05-10T10:52:21;19.50;99.90
15656;DHT22;7928;43.614;1.456;2023-05-10T10:54:52;19.20;99.90
15656;DHT22;7928;43.614;1.456;2023-05-10T10:57:21;19.70;99.90
15656;DHT22;7928;43.614;1.456;2023-05-10T10:59:48;20.10;99.90
15656;DHT22;7928;43.614;1.456;2023-05-10T11:02:43;19.60;99.90
15656;DHT22;7928;43.614;1.456;2023-05-10T11:05:39;19.00;99.90
15656;DHT22;7928;43.614;1.456;2023-05-10T11:08:10;18.30;99.90
15656;DHT22;7928;43.614;1.456;2023-05-10T11:10:38;17.50;58.80
15656;DHT22;7928;43.614;1.456;2023-05-10T11:13:06;16.80;99.90
15656;DHT22;7928;43.614;1.456;2023-05-10T11:15:34;16.40;99.90
15656;DHT22;7928;43.614;1.456;2023-05-10T11:20:59;16.40;99.90
15656;DHT22;7928;43.614;1.456;2023-05-10T11:23:32;16.60;99.90
15656;DHT22;7928;43.614;1.456;2023-05-10T11:25:59;16.50;99.90
15656;DHT22;7928;43.614;1.456;2023-05-10T11:28:27;16.10;99.90
15656;DHT22;7928;43.614;1.456;2023-05-10T11:30:54;15.80;99.90
15656;DHT22;7928;43.614;1.456;2023-05-10T11:33:22;15.50;99.90
15656;DHT22;7928;43.614;1.456;2023-05-10T11:35:49;15.50;99.90
15656;DHT22;7928;43.614;1.456;2023-05-10T11:38:17;15.70;99.90
15656;DHT22;7928;43.614;1.456;2023-05-10T11:40:44;15.90;99.90
15656;DHT22;7928;43.614;1.456;2023-05-10T11:43:11;16.30;99.90
15656;DHT22;7928;43.614;1.456;2023-05-10T11:45:39;16.40;99.90
15656;DHT22;7928;43.614;1.456;2023-05-10T11:48:06;16.80;99.90
15656;DHT22;7928;43.614;1.456;2023-05-10T11:50:34;17.00;99.90
15656;DHT22;7928;43.614;1.456;2023-05-10T11:53:01;17.80;99.90
15656;DHT22;7928;43.614;1.456;2023-05-10T11:55:29;19.30;99.90
15656;DHT22;7928;43.614;1.456;2023-05-10T11:58:01;19.50;1.00
15656;DHT22;7928;43.614;1.456;2023-05-10T12:00:29;19.40;1.00
15656;DHT22;7928;43.614;1.456;2023-05-10T12:02:56;20.00;1.00
15656;DHT22;7928;43.614;1.456;2023-05-10T12:05:24;20.70;1.00
15656;DHT22;7928;43.614;1.456;2023-05-10T12:07:51;21.60;99.90
15656;DHT22;7928;43.614;1.456;2023-05-10T12:10:25;21.50;99.90
15656;DHT22;7928;43.614;1.456;2023-05-10T12:12:54;22.00;99.90
15656;DHT22;7928;43.614;1.456;2023-05-10T12:15:24;23.00;99.90
15656;DHT22;7928;43.614;1.456;2023-05-10T12:17:51;24.00;99.90
15656;DHT22;7928;43.614;1.456;2023-05-10T12:20:19;24.40;99.90
15656;DHT22;7928;43.614;1.456;2023-05-10T12:22:50;24.70;99.90
15656;DHT22;7928;43.614;1.456;2023-05-10T12:25:17;24.70;99.90
15656;DHT22;7928;43.614;1.456;2023-05-10T12:27:49;24.10;99.90
15656;DHT22;7928;43.614;1.456;2023-05-10T12:30:21;24.10;99.90
15656;DHT22;7928;43.614;1.456;2023-05-10T12:32:48;24.60;99.90
15656;DHT22;7928;43.614;1.456;2023-05-10T12:35:16;24.80;99.90
15656;DHT22;7928;43.614;1.456;2023-05-10T12:37:46;24.90;99.90
15656;DHT22;7928;43.614;1.456;2023-05-10T12:40:12;25.50;99.90
15656;DHT22;7928;43.614;1.456;2023-05-10T12:42:40;25.30;99.90
15656;DHT22;7928;43.614;1.456;2023-05-10T12:45:08;25.70;99.90
15656;DHT22;7928;43.614;1.456;2023-05-10T12:47:37;25.50;99.90
15656;DHT22;7928;43.614;1.456;2023-05-10T12:50:05;24.80;99.90
15656;DHT22;7928;43.614;1.456;2023-05-10T12:52:32;23.50;99.90
15656;DHT22;7928;43.614;1.456;2023-05-10T12:54:59;24.20;99.90
15656;DHT22;7928;43.614;1.456;2023-05-10T12:57:27;24.00;99.90
15656;DHT22;7928;43.614;1.456;2023-05-10T12:59:54;23.50;99.90
15656;DHT22;7928;43.614;1.456;2023-05-10T13:02:21;22.60;99.90
15656;DHT22;7928;43.614;1.456;2023-05-10T13:04:50;22.00;99.90
15656;DHT22;7928;43.614;1.456;2023-05-10T13:07:17;21.90;99.90
15656;DHT22;7928;43.614;1.456;2023-05-10T13:09:44;21.90;99.90
15656;DHT22;7928;43.614;1.456;2023-05-10T13:12:11;21.80;99.90
15656;DHT22;7928;43.614;1.456;2023-05-10T13:14:38;23.30;99.90
15656;DHT22;7928;43.614;1.456;2023-05-10T13:17:07;24.10;99.90
15656;DHT22;7928;43.614;1.456;2023-05-10T13:19:34;24.50;99.90
15656;DHT22;7928;43.614;1.456;2023-05-10T13:22:03;24.30;99.90
15656;DHT22;7928;43.614;1.456;2023-05-10T13:24:30;24.40;99.90
15656;DHT22;7928;43.614;1.456;2023-05-10T13:26:57;24.70;99.90
15656;DHT22;7928;43.614;1.456;2023-05-10T13:29:24;25.10;99.90
15656;DHT22;7928;43.614;1.456;2023-05-10T13:31:51;23.90;99.90
15656;DHT22;7928;43.614;1.456;2023-05-10T13:34:18;23.10;99.90
15656;DHT22;7928;43.614;1.456;2023-05-10T13:36:47;22.00;99.90
15656;DHT22;7928;43.614;1.456;2023-05-10T13:39:15;22.30;99.90
15656;DHT22;7928;43.614;1.456;2023-05-10T13:41:42;24.30;99.90
15656;DHT22;7928;43.614;1.456;2023-05-10T13:44:11;25.10;99.90
15656;DHT22;7928;43.614;1.456;2023-05-10T13:46:38;24.10;99.90
15656;DHT22;7928;43.614;1.456;2023-05-10T13:49:05;23.10;99.90
15656;DHT22;7928;43.614;1.456;2023-05-10T13:51:33;22.50;99.90
15656;DHT22;7928;43.614;1.456;2023-05-10T13:54:00;22.70;99.90
15656;DHT22;7928;43.614;1.456;2023-05-10T13:56:29;23.10;99.90
15656;DHT22;7928;43.614;1.456;2023-05-10T13:58:56;23.00;99.90
15656;DHT22;7928;43.614;1.456;2023-05-10T14:01:23;22.40;99.90
15656;DHT22;7928;43.614;1.456;2023-05-10T14:03:50;21.70;99.90
15656;DHT22;7928;43.614;1.456;2023-05-10T14:06:17;20.80;99.90
15656;DHT22;7928;43.614;1.456;2023-05-10T14:08:44;21.10;99.90
15656;DHT22;7928;43.614;1.456;2023-05-10T14:11:11;21.80;99.90
15656;DHT22;7928;43.614;1.456;2023-05-10T14:13:40;22.30;99.90
15656;DHT22;7928;43.614;1.456;2023-05-10T14:16:07;22.20;99.90
15656;DHT22;7928;43.614;1.456;2023-05-10T14:18:34;22.00;99.90
15656;DHT22;7928;43.614;1.456;2023-05-10T14:21:02;21.40;99.90
15656;DHT22;7928;43.614;1.456;2023-05-10T14:23:29;21.70;99.90
15656;DHT22;7928;43.614;1.456;2023-05-10T14:25:56;21.50;99.90
15656;DHT22;7928;43.614;1.456;2023-05-10T14:28:23;21.30;99.90
15656;DHT22;7928;43.614;1.456;2023-05-10T14:30:51;21.00;99.90
15656;DHT22;7928;43.614;1.456;2023-05-10T14:33:18;20.70;99.90
15656;DHT22;7928;43.614;1.456;2023-05-10T14:35:46;20.20;99.90
15656;DHT22;7928;43.614;1.456;2023-05-10T14:38:13;20.00;99.90
15656;DHT22;7928;43.614;1.456;2023-05-10T14:40:40;19.70;99.90
15656;DHT22;7928;43.614;1.456;2023-05-10T14:43:08;20.00;99.90
15656;DHT22;7928;43.614;1.456;2023-05-10T14:45:35;20.20;99.90
15656;DHT22;7928;43.614;1.456;2023-05-10T14:48:03;20.00;99.90
15656;DHT22;7928;43.614;1.456;2023-05-10T14:50:31;19.90;99.90
15656;DHT22;7928;43.614;1.456;2023-05-10T14:52:58;20.10;99.90
15656;DHT22;7928;43.614;1.456;2023-05-10T14:55:25;20.40;99.90
15656;DHT22;7928;43.614;1.456;2023-05-10T14:57:52;20.00;99.90
15656;DHT22;7928;43.614;1.456;2023-05-10T15:00:20;20.00;99.90
15656;DHT22;7928;43.614;1.456;2023-05-10T15:02:48;19.90;99.90
15656;DHT22;7928;43.614;1.456;2023-05-10T15:05:16;20.10;99.90
15656;DHT22;7928;43.614;1.456;2023-05-10T15:07:43;20.60;99.90
15656;DHT22;7928;43.614;1.456;2023-05-10T15:10:10;20.80;99.90
15656;DHT22;7928;43.614;1.456;2023-05-10T15:12:37;20.90;99.90
15656;DHT22;7928;43.614;1.456;2023-05-10T15:15:06;21.70;99.90
15656;DHT22;7928;43.614;1.456;2023-05-10T15:17:33;22.40;99.90
15656;DHT22;7928;43.614;1.456;2023-05-10T15:20:00;22.20;99.90
15656;DHT22;7928;43.614;1.456;2023-05-10T15:22:29;21.60;99.90
15656;DHT22;7928;43.614;1.456;2023-05-10T15:24:57;21.20;99.90
15656;DHT22;7928;43.614;1.456;2023-05-10T15:27:24;21.10;99.90
15656;DHT22;7928;43.614;1.456;2023-05-10T15:29:51;20.60;99.90
15656;DHT22;7928;43.614;1.456;2023-05-10T15:32:18;20.20;99.90
15656;DHT22;7928;43.614;1.456;2023-05-10T15:34:45;19.80;99.90
15656;DHT22;7928;43.614;1.456;2023-05-10T15:37:12;19.30;99.90
15656;DHT22;7928;43.614;1.456;2023-05-10T15:39:40;19.20;99.90
15656;DHT22;7928;43.614;1.456;2023-05-10T15:42:07;19.00;99.90
15656;DHT22;7928;43.614;1.456;2023-05-10T15:44:34;19.10;99.90
15656;DHT22;7928;43.614;1.456;2023-05-10T15:47:04;19.20;99.90
15656;DHT22;7928;43.614;1.456;2023-05-10T15:49:31;19.00;99.90
15656;DHT22;7928;43.614;1.456;2023-05-10T15:51:58;18.80;99.90
15656;DHT22;7928;43.614;1.456;2023-05-10T15:54:25;18.80;99.90
15656;DHT22;7928;43.614;1.456;2023-05-10T15:56:53;18.70;99.90
15656;DHT22;7928;43.614;1.456;2023-05-10T15:59:20;18.90;99.90
15656;DHT22;7928;43.614;1.456;2023-05-10T16:01:47;19.10;99.90
15656;DHT22;7928;43.614;1.456;2023-05-10T16:04:15;19.30;99.90